Météo Nord-Pas-de-Calais   La météo au plus près de chez vous

Station météorologique

Observations météo à Quimper (29216)

29216001 82 m Dernier relevé à 07:42
13.8°C
Humidité 96 % Vent 3.2 km/h 1025.1 hPa

Journée consultée

Samedi 5 Septembre 2026

Synthèse de la journée

Périodes de référence en UTC

Température maximale

23.7°C

à 13:36

06h 06h

Température minimale

12.8°C

à 06:42

18h 18h

Rafale maximale

9 km/h

à 02:12

00h 00h

Précipitations

0.4 mm

Cumul quotidien

06h 06h

Ensoleillement

0h 0 mins

Durée quotidienne

00h 00h

Graphiques de la journée

Heure locale Réduire

Données détaillées

Relevés météo

Pas de 6 minutes Afficher les relevés infra-horaires
Relevés météo détaillés à Quimper pour le Samedi 5 Septembre 2026
Heure Température °C Point de rosée °C Humidité % Vent moyen (raf.), km/h Précipitations mm Température à 10 cm °C Température à 20 cm °C Température à 50 cm °C Visibilité m État du sol   Ensoleillement min Rayonnement global W/m² Pression hPa Nébulosité Octas
07:42 13.8 °C 13.5 °C 98 % 5 km/h (8 km/h) 0 mm0 mm 19.5 °C 20 °C 19.5 °C 19820 m 0   0 min 0 W/m² 1025.2 hPa
07:36 13.8 °C 13.6 °C 99 % 5 km/h (6 km/h) 0 mm0 mm 19.5 °C 20 °C 19.5 °C 35760 m 0   0 min 0 W/m² 1025.1 hPa
07:30 13.5 °C 13.2 °C 98 % 4 km/h (6 km/h) 0 mm0 mm 19.6 °C 20 °C 19.5 °C 19530 m 0   0 min 0 W/m² 1025.3 hPa
07:24 13.3 °C 13 °C 98 % 3 km/h (5 km/h) 0 mm0 mm 19.6 °C 20 °C 19.5 °C 18960 m 0   0 min 0 W/m² 1025.3 hPa
07:18 13.3 °C 13 °C 98 % 4 km/h (7 km/h) 0 mm0 mm 19.6 °C 20 °C 19.5 °C 19700 m 0   0 min 0 W/m² 1025.2 hPa
07:12 13.2 °C 12.9 °C 98 % 6 km/h (8 km/h) 0 mm0 mm 19.6 °C 20 °C 19.5 °C 19440 m 0   0 min 0 W/m² 1025.2 hPa
07:06 13.1 °C 12.8 °C 98 % 7 km/h (8 km/h) 0 mm0 mm 19.6 °C 20 °C 19.5 °C 18880 m 0   0 min 0 W/m² 1025.1 hPa
07:00 13.2 °C 12.9 °C 98 % 6 km/h (8 km/h) 0 mm0 mm 19.7 °C 20 °C 19.5 °C 19490 m 0   0 min 0 W/m² 1025.1 hPa 7 Octas
06:54 13 °C 12.5 °C 97 % 5 km/h (6 km/h) 0 mm0 mm 19.7 °C 20.1 °C 19.5 °C 18960 m 0   0 min 0 W/m² 1025.1 hPa
06:48 12.8 °C 12.3 °C 97 % 4 km/h (5 km/h) 0 mm0 mm 19.7 °C 20.1 °C 19.5 °C 18570 m 0   0 min 0 W/m² 1025.2 hPa
06:42 12.8 °C 12.2 °C 96 % 3 km/h (5 km/h) 0 mm0 mm 19.7 °C 20.1 °C 19.5 °C 18500 m 0   0 min 0 W/m² 1025.1 hPa
06:36 13.1 °C 12.6 °C 97 % 2 km/h (4 km/h) 0 mm0 mm 19.7 °C 20.1 °C 19.5 °C 17980 m 0   0 min 0 W/m² 1025.1 hPa
06:30 13.5 °C 13.2 °C 98 % 0 km/h (2 km/h) 0 mm0 mm 19.7 °C 20.1 °C 19.5 °C 19160 m 0   0 min 0 W/m² 1025.1 hPa
06:24 13.4 °C 12.9 °C 97 % 0 km/h (2 km/h) 0 mm0 mm 19.8 °C 20.1 °C 19.5 °C 19660 m 0   0 min 0 W/m² 1025 hPa
06:18 13.4 °C 12.9 °C 97 % 0 km/h (2 km/h) 0 mm0 mm 19.8 °C 20.1 °C 19.5 °C 19920 m 0   0 min 0 W/m² 1025 hPa
06:12 13.4 °C 12.9 °C 97 % 0 km/h (3 km/h) 0 mm0 mm 19.8 °C 20.2 °C 19.5 °C 19920 m 0   0 min 0 W/m² 1025 hPa
06:06 13.5 °C 13 °C 97 % 3 km/h (5 km/h) 0 mm0 mm 19.9 °C 20.2 °C 19.5 °C 41000 m 0   0 min 0 W/m² 1025 hPa
06:00 13.6 °C 13.1 °C 97 % 5 km/h (6 km/h) 0 mm0 mm 19.8 °C 20.2 °C 19.5 °C 44780 m 0   0 min 0 W/m² 1024.9 hPa 8 Octas
05:54 13.6 °C 13.1 °C 97 % 6 km/h (7 km/h) 0 mm0 mm 19.9 °C 20.2 °C 19.5 °C 41860 m 0   0 min 0 W/m² 1024.9 hPa
05:48 13.6 °C 13.3 °C 98 % 5 km/h (7 km/h) 0 mm0 mm 19.9 °C 20.2 °C 19.5 °C 43940 m 0   0 min 0 W/m² 1024.9 hPa
05:42 13.3 °C 12.8 °C 97 % 3 km/h (4 km/h) 0 mm0 mm 19.9 °C 20.2 °C 19.5 °C 44300 m 0   0 min 0 W/m² 1025 hPa
05:36 13.2 °C 12.7 °C 97 % 3 km/h (4 km/h) 0 mm0 mm 19.9 °C 20.2 °C 19.5 °C 19750 m 0   0 min 0 W/m² 1025 hPa
05:30 13.3 °C 12.8 °C 97 % 4 km/h (5 km/h) 0 mm0 mm 20 °C 20.2 °C 19.5 °C 19370 m 0   0 min 0 W/m² 1025 hPa
05:24 13.4 °C 12.9 °C 97 % 3 km/h (5 km/h) 0 mm0 mm 20 °C 20.2 °C 19.5 °C 19710 m 0   0 min 0 W/m² 1025 hPa
05:18 13.4 °C 12.9 °C 97 % 3 km/h (3 km/h) 0 mm0 mm 20 °C 20.3 °C 19.5 °C 19890 m 0   0 min 0 W/m² 1024.8 hPa
05:12 13.4 °C 12.9 °C 97 % 2 km/h (3 km/h) 0 mm0 mm 20 °C 20.3 °C 19.5 °C 19990 m 0   0 min 0 W/m² 1024.8 hPa
05:06 13.3 °C 12.7 °C 96 % 3 km/h (4 km/h) 0 mm0 mm 20.1 °C 20.3 °C 19.5 °C 19850 m 0   0 min 0 W/m² 1024.9 hPa
05:00 13.4 °C 12.8 °C 96 % 4 km/h (6 km/h) 0 mm0 mm 20.1 °C 20.3 °C 19.5 °C 19410 m 0   0 min 0 W/m² 1024.7 hPa
04:54 13.5 °C 12.9 °C 96 % 6 km/h (6 km/h) 0 mm0 mm 20.1 °C 20.3 °C 19.5 °C 19760 m 0   0 min 0 W/m² 1024.8 hPa
04:48 13.8 °C 13.2 °C 96 % 5 km/h (6 km/h) 0 mm0 mm 20.1 °C 20.4 °C 19.5 °C 19410 m 0   0 min 0 W/m² 1024.7 hPa
04:42 14.1 °C 13.6 °C 97 % 4 km/h (5 km/h) 0 mm0 mm 20.2 °C 20.3 °C 19.5 °C 19880 m 0   0 min 0 W/m² 1024.6 hPa
04:36 14.1 °C 13.6 °C 97 % 4 km/h (5 km/h) 0 mm0 mm 20.1 °C 20.3 °C 19.5 °C 35470 m 0   0 min 0 W/m² 1024.6 hPa
04:30 14 °C 13.4 °C 96 % 4 km/h (5 km/h) 0 mm0 mm 20.2 °C 20.4 °C 19.5 °C 19800 m 0   0 min 0 W/m² 1024.6 hPa
04:24 13.9 °C 13.1 °C 95 % 4 km/h (5 km/h) 0 mm0 mm 20.2 °C 20.4 °C 19.5 °C 38280 m 0   0 min 0 W/m² 1024.7 hPa
04:18 14.1 °C 13.3 °C 95 % 3 km/h (4 km/h) 0 mm0 mm 20.2 °C 20.4 °C 19.5 °C 38770 m 0   0 min 0 W/m² 1024.6 hPa
04:12 14.1 °C 13.3 °C 95 % 3 km/h (4 km/h) 0 mm0 mm 20.2 °C 20.4 °C 19.5 °C 39250 m 0   0 min 0 W/m² 1024.6 hPa
04:06 13.9 °C 12.8 °C 93 % 4 km/h (4 km/h) 0 mm0 mm 20.2 °C 20.4 °C 19.5 °C 41140 m 0   0 min 0 W/m² 1024.5 hPa
04:00 14.1 °C 13 °C 93 % 4 km/h (5 km/h) 0 mm0 mm 20.3 °C 20.4 °C 19.5 °C 41600 m 0   0 min 0 W/m² 1024.5 hPa 8 Octas
03:54 14.5 °C 13.4 °C 93 % 5 km/h (7 km/h) 0 mm0 mm 20.3 °C 20.4 °C 19.5 °C 19960 m 0   0 min 0 W/m² 1024.5 hPa
03:48 14.5 °C 13.4 °C 93 % 6 km/h (8 km/h) 0 mm0 mm 20.3 °C 20.4 °C 19.4 °C 42170 m 0   0 min 0 W/m² 1024.4 hPa
03:42 14.5 °C 13.4 °C 93 % 5 km/h (8 km/h) 0 mm0 mm 20.4 °C 20.5 °C 19.5 °C 42700 m 0   0 min 0 W/m² 1024.4 hPa
03:36 14.6 °C 13.5 °C 93 % 4 km/h (5 km/h) 0 mm0 mm 20.4 °C 20.5 °C 19.5 °C 42890 m 0   0 min 0 W/m² 1024.4 hPa
03:30 14.5 °C 13 °C 91 % 3 km/h (4 km/h) 0 mm0 mm 20.4 °C 20.5 °C 19.5 °C 42560 m 0   0 min 0 W/m² 1024.4 hPa
03:24 14.7 °C 13.2 °C 91 % 3 km/h (5 km/h) 0 mm0 mm 20.4 °C 20.5 °C 19.4 °C 43100 m 0   0 min 0 W/m² 1024.3 hPa
03:18 15 °C 13.5 °C 91 % 3 km/h (5 km/h) 0 mm0 mm 20.5 °C 20.5 °C 19.5 °C 44180 m 0   0 min 0 W/m² 1024.4 hPa
03:12 15.1 °C 13.5 °C 90 % 2 km/h (4 km/h) 0 mm0 mm 20.4 °C 20.5 °C 19.5 °C 44990 m 0   0 min 0 W/m² 1024.4 hPa
03:06 15.2 °C 13.2 °C 88 % 4 km/h (6 km/h) 0 mm0 mm 20.5 °C 20.5 °C 19.5 °C 45850 m 0   0 min 0 W/m² 1024.3 hPa
03:00 15.3 °C 13.3 °C 88 % 5 km/h (7 km/h) 0 mm0 mm 20.5 °C 20.5 °C 19.5 °C 46610 m 0   0 min 0 W/m² 1024.3 hPa 8 Octas
02:54 15.3 °C 13.3 °C 88 % 5 km/h (7 km/h) 0 mm0 mm 20.5 °C 20.5 °C 19.5 °C 46570 m 0   0 min 0 W/m² 1024.3 hPa
02:48 15.4 °C 13.4 °C 88 % 4 km/h (6 km/h) 0 mm0 mm 20.5 °C 20.5 °C 19.4 °C 46150 m 0   0 min 0 W/m² 1024.3 hPa
02:42 15.4 °C 13.4 °C 88 % 4 km/h (7 km/h) 0 mm0 mm 20.5 °C 20.6 °C 19.5 °C 45980 m 0   0 min 0 W/m² 1024.2 hPa
02:36 15.4 °C 13.4 °C 88 % 5 km/h (9 km/h) 0 mm0 mm 20.6 °C 20.5 °C 19.5 °C 45990 m 0   0 min 0 W/m² 1024.2 hPa
02:30 15.5 °C 13.3 °C 87 % 6 km/h (9 km/h) 0 mm0 mm 20.6 °C 20.6 °C 19.5 °C 46910 m 0   0 min 0 W/m² 1024.2 hPa
02:24 15.6 °C 13.4 °C 87 % 6 km/h (9 km/h) 0 mm0 mm 20.6 °C 20.6 °C 19.5 °C 46950 m 0   0 min 0 W/m² 1024.2 hPa
02:18 15.7 °C 13.5 °C 87 % 6 km/h (8 km/h) 0 mm0 mm 20.6 °C 20.6 °C 19.4 °C 47440 m 0   0 min 0 W/m² 1024.1 hPa
02:12 15.9 °C 13.7 °C 87 % 6 km/h (9 km/h) 0 mm0 mm 20.6 °C 20.6 °C 19.4 °C 47730 m 0   0 min 0 W/m² 1024.1 hPa
02:06 15.9 °C 13.7 °C 87 % 5 km/h (8 km/h) 0 mm0 mm 20.7 °C 20.6 °C 19.4 °C 48110 m 0   0 min 0 W/m² 1024.1 hPa
02:00 16 °C 13.8 °C 87 % 4 km/h (9 km/h) 0 mm0 mm 20.7 °C 20.6 °C 19.4 °C 48270 m 0   0 min 0 W/m² 1024 hPa 8 Octas
01:54 16.1 °C 13.9 °C 87 % 5 km/h (10 km/h) 0 mm0 mm 20.7 °C 20.6 °C 19.4 °C 48320 m 0   0 min 0 W/m² 1023.9 hPa
01:48 16.1 °C 13.9 °C 87 % 7 km/h (10 km/h) 0 mm0 mm 20.7 °C 20.6 °C 19.4 °C 48760 m 0   0 min 0 W/m² 1023.6 hPa
01:42 16.2 °C 14 °C 87 % 5 km/h (9 km/h) 0 mm0 mm 20.7 °C 20.6 °C 19.4 °C 49100 m 0   0 min 0 W/m² 1023.7 hPa
01:36 16.2 °C 14.2 °C 88 % 6 km/h (12 km/h) 0 mm0 mm 20.8 °C 20.6 °C 19.5 °C 49370 m 0   0 min 0 W/m² 1023.8 hPa
01:30 16.3 °C 14.3 °C 88 % 6 km/h (12 km/h) 0 mm0 mm 20.8 °C 20.6 °C 19.4 °C 49610 m 0   0 min 0 W/m² 1023.6 hPa
01:24 16.3 °C 14.5 °C 89 % 5 km/h (9 km/h) 0 mm0 mm 20.8 °C 20.6 °C 19.4 °C 50470 m 0   0 min 0 W/m² 1023.6 hPa
01:18 16.3 °C 14.5 °C 89 % 5 km/h (8 km/h) 0 mm0 mm 20.8 °C 20.6 °C 19.4 °C 51180 m 0   0 min 0 W/m² 1023.6 hPa
01:12 16.4 °C 14.8 °C 90 % 6 km/h (11 km/h) 0 mm0 mm 20.8 °C 20.7 °C 19.4 °C 2970 m 0   0 min 0 W/m² 1023.5 hPa
01:06 16.4 °C 14.9 °C 91 % 8 km/h (12 km/h) 0 mm0 mm 20.9 °C 20.7 °C 19.5 °C 2890 m 0   0 min 0 W/m² 1023.6 hPa
01:00 16.5 °C 15 °C 91 % 8 km/h (12 km/h) 0 mm0 mm 20.9 °C 20.7 °C 19.5 °C 51330 m 0   0 min 0 W/m² 1023.6 hPa 8 Octas
00:54 16.5 °C 15 °C 91 % 9 km/h (14 km/h) 0 mm0 mm 20.9 °C 20.7 °C 19.5 °C 50790 m 0   0 min 0 W/m² 1023.4 hPa
00:48 16.6 °C 15.1 °C 91 % 11 km/h (15 km/h) 0 mm0 mm 20.9 °C 20.7 °C 19.4 °C 50640 m 0   0 min 0 W/m² 1023.5 hPa
00:42 16.7 °C 15.1 °C 90 % 12 km/h (16 km/h) 0 mm0 mm 20.9 °C 20.7 °C 19.4 °C 50200 m 0   0 min 0 W/m² 1023.5 hPa
00:36 16.8 °C 15.1 °C 90 % 11 km/h (16 km/h) 0 mm0 mm 21 °C 20.7 °C 19.4 °C 50170 m 0   0 min 0 W/m² 1023.6 hPa
00:30 16.8 °C 15.1 °C 90 % 10 km/h (18 km/h) 0 mm0 mm 21 °C 20.7 °C 19.5 °C 51320 m 0   0 min 0 W/m² 1023.4 hPa
00:24 16.9 °C 15.2 °C 90 % 10 km/h (15 km/h) 0 mm0 mm 21 °C 20.7 °C 19.4 °C 52990 m 0   0 min 0 W/m² 1023.5 hPa
00:18 16.9 °C 15.1 °C 89 % 10 km/h (14 km/h) 0 mm0 mm 21 °C 20.7 °C 19.4 °C 54240 m 0   0 min 0 W/m² 1023.5 hPa
00:12 17.1 °C 15.3 °C 89 % 9 km/h (14 km/h) 0 mm0 mm 21 °C 20.7 °C 19.4 °C 54240 m 0   0 min 0 W/m² 1023.4 hPa
00:06 17.1 °C 15.1 °C 88 % 10 km/h (17 km/h) 0 mm0 mm 21 °C 20.7 °C 19.4 °C 55480 m 0   0 min 0 W/m² 1023.5 hPa
00:00 17.2 °C 15.2 °C 88 % 10 km/h (17 km/h) 0 mm0 mm 21.1 °C 20.7 °C 19.4 °C 56560 m 0   0 min 0 W/m² 1023.5 hPa 8 Octas

Données via Météo-France

Relevés météo à Quimper

Cette page rassemble les observations de la station de Quimper : température, humidité, vent, précipitations et pression atmosphérique. Les graphiques facilitent le suivi de la journée, tandis que le tableau donne accès aux mesures horaires et infra-horaires disponibles.

Pour replacer ces mesures dans leur contexte, consultez la climatologie de Quimper ainsi que ses normales et records. Retrouvez aussi la carte des observations météo en temps réel.